EDDR/SCN METAR and TAF weather

Enter ICAO airport designator
Station Type Date Time Source
EDDR METAR 2020/07/12 05:50 UTC NOAA

EDDR 120550Z 05008KT 030V090 CAVOK 14/08 Q1026 NOSIG


Station Type Date Time Source
EDDR Decoded METAR 2020/07/12 05:50 UTC NOAA

Saarbruecken / Ensheim, Germany (EDDR) 49-13N 007-07E 320M
Jul 12, 2020 - 01:50 AM EDT / 2020.07.12 0550 UTC
Wind: from the NE (050 degrees) at 9 MPH (8 KT) (direction variable):0
Visibility: greater than 7 mile(s):0
Temperature: 57 F (14 C)
Dew Point: 46 F (8 C)
Relative Humidity: 67%
Pressure (altimeter): 30.30 in. Hg (1026 hPa)
ob: EDDR 120550Z 05008KT 030V090 CAVOK 14/08 Q1026 NOSIG
cycle: 6

Station Type Date Time Source
EDDR TAF 2020/07/12 06:31 UTC NOAA

TAF EDDR 120500Z 1206/1306 04006KT CAVOK

Example: see airport list